Derry, New Hampshire
Current Conditions -  °F | °C
As of 7:53 PM on Monday 22 Dec 2014 (Local Time) from KMHT Reporting Station
Overcast Overcast  
Wind Chill: 36°   Ceiling: 900
Heat Index: 36°   Visibility: 7mi
Dew Point: 33°   Wind: 0mph
Humidity: 89%   Direction: NA
Pressure: 30.34"   Gusts: NA
Location:  42.88°N, 71.32°W
Report Text: KMHT 230053Z 00000KT 7SM BKN009 OVC018 02/01 A3034 RMK AO2 RAB42E52 SLP290 P0000 T00220006
Loading
Personal Weather Stations






























Interactive Weather Map New forecast layout! Learn more

10-Day Weather Forecast

Advertisements
Track Severe Weather on mobile